sensor_id;sensor_type;location;lat;lon;timestamp;pressure;altitude;pressure_sealevel;temperature;humidity
14067;BME280;7108;42.684;23.350;2023-04-26T00:02:21;94432.66;;;11.78;100.00
14067;BME280;7108;42.684;23.350;2023-04-26T00:04:50;94425.69;;;11.71;100.00
14067;BME280;7108;42.684;23.350;2023-04-26T00:07:21;94419.16;;;11.72;100.00
14067;BME280;7108;42.684;23.350;2023-04-26T00:09:46;94409.91;;;11.73;100.00
14067;BME280;7108;42.684;23.350;2023-04-26T00:12:12;94414.16;;;11.74;100.00
14067;BME280;7108;42.684;23.350;2023-04-26T00:14:37;94420.66;;;11.62;100.00
14067;BME280;7108;42.684;23.350;2023-04-26T00:17:03;94405.28;;;11.66;100.00
14067;BME280;7108;42.684;23.350;2023-04-26T00:19:29;94407.97;;;11.66;100.00
14067;BME280;7108;42.684;23.350;2023-04-26T00:21:56;94388.31;;;11.59;100.00
14067;BME280;7108;42.684;23.350;2023-04-26T00:24:21;94399.09;;;11.62;100.00
14067;BME280;7108;42.684;23.350;2023-04-26T00:26:47;94394.84;;;11.54;100.00
14067;BME280;7108;42.684;23.350;2023-04-26T00:29:12;94404.84;;;11.54;100.00
14067;BME280;7108;42.684;23.350;2023-04-26T00:31:37;94396.78;;;11.50;100.00
14067;BME280;7108;42.684;23.350;2023-04-26T00:34:03;94399.44;;;11.47;100.00
14067;BME280;7108;42.684;23.350;2023-04-26T00:36:28;94384.38;;;11.42;100.00
14067;BME280;7108;42.684;23.350;2023-04-26T00:38:54;94388.22;;;11.41;100.00
14067;BME280;7108;42.684;23.350;2023-04-26T00:41:19;94376.66;;;11.34;100.00
14067;BME280;7108;42.684;23.350;2023-04-26T00:43:46;94378.59;;;11.37;100.00
14067;BME280;7108;42.684;23.350;2023-04-26T00:46:11;94377.81;;;11.36;100.00
14067;BME280;7108;42.684;23.350;2023-04-26T00:48:37;94384.38;;;11.32;100.00
14067;BME280;7108;42.684;23.350;2023-04-26T00:51:04;94387.81;;;11.32;100.00
14067;BME280;7108;42.684;23.350;2023-04-26T00:53:30;94375.47;;;11.21;100.00
14067;BME280;7108;42.684;23.350;2023-04-26T00:55:57;94388.56;;;11.22;100.00
14067;BME280;7108;42.684;23.350;2023-04-26T00:58:23;94386.66;;;11.19;100.00
14067;BME280;7108;42.684;23.350;2023-04-26T01:00:49;94388.13;;;11.07;100.00
14067;BME280;7108;42.684;23.350;2023-04-26T01:03:15;94399.69;;;11.10;100.00
14067;BME280;7108;42.684;23.350;2023-04-26T01:05:42;94398.13;;;11.03;100.00
14067;BME280;7108;42.684;23.350;2023-04-26T01:08:08;94385.00;;;10.94;100.00
14067;BME280;7108;42.684;23.350;2023-04-26T01:10:34;94395.44;;;11.03;100.00
14067;BME280;7108;42.684;23.350;2023-04-26T01:13:00;94402.75;;;10.95;100.00
14067;BME280;7108;42.684;23.350;2023-04-26T01:15:27;94390.34;;;10.84;100.00
14067;BME280;7108;42.684;23.350;2023-04-26T01:17:55;94398.81;;;10.82;100.00
14067;BME280;7108;42.684;23.350;2023-04-26T01:20:20;94400.34;;;10.80;100.00
14067;BME280;7108;42.684;23.350;2023-04-26T01:22:46;94398.78;;;10.79;100.00
14067;BME280;7108;42.684;23.350;2023-04-26T01:25:11;94393.03;;;10.84;100.00
14067;BME280;7108;42.684;23.350;2023-04-26T01:27:37;94379.19;;;10.82;100.00
14067;BME280;7108;42.684;23.350;2023-04-26T01:30:03;94375.72;;;10.81;100.00
14067;BME280;7108;42.684;23.350;2023-04-26T01:32:29;94379.94;;;10.75;100.00
14067;BME280;7108;42.684;23.350;2023-04-26T01:34:54;94386.09;;;10.76;100.00
14067;BME280;7108;42.684;23.350;2023-04-26T01:37:20;94375.66;;;10.67;100.00
14067;BME280;7108;42.684;23.350;2023-04-26T01:39:45;94392.59;;;10.71;100.00
14067;BME280;7108;42.684;23.350;2023-04-26T01:42:10;94386.09;;;10.76;100.00
14067;BME280;7108;42.684;23.350;2023-04-26T01:44:36;94377.22;;;10.72;100.00
14067;BME280;7108;42.684;23.350;2023-04-26T01:47:01;94383.75;;;10.67;100.00
14067;BME280;7108;42.684;23.350;2023-04-26T01:49:27;94404.09;;;10.61;100.00
14067;BME280;7108;42.684;23.350;2023-04-26T01:51:52;94390.59;;;10.51;100.00
14067;BME280;7108;42.684;23.350;2023-04-26T01:54:18;94389.81;;;10.54;100.00
14067;BME280;7108;42.684;23.350;2023-04-26T01:56:43;94404.09;;;10.61;100.00
14067;BME280;7108;42.684;23.350;2023-04-26T01:59:09;94392.97;;;10.66;100.00
14067;BME280;7108;42.684;23.350;2023-04-26T02:01:34;94386.78;;;10.59;100.00
14067;BME280;7108;42.684;23.350;2023-04-26T02:03:59;94394.47;;;10.57;100.00
14067;BME280;7108;42.684;23.350;2023-04-26T02:06:25;94382.53;;;10.54;100.00
14067;BME280;7108;42.684;23.350;2023-04-26T02:08:51;94381.78;;;10.57;100.00
14067;BME280;7108;42.684;23.350;2023-04-26T02:11:17;94379.84;;;10.54;100.00
14067;BME280;7108;42.684;23.350;2023-04-26T02:13:42;94391.03;;;10.63;100.00
14067;BME280;7108;42.684;23.350;2023-04-26T02:16:08;94377.94;;;10.58;100.00
14067;BME280;7108;42.684;23.350;2023-04-26T02:18:33;94374.88;;;10.63;100.00
14067;BME280;7108;42.684;23.350;2023-04-26T02:20:59;94376.03;;;10.66;100.00
14067;BME280;7108;42.684;23.350;2023-04-26T02:23:25;94369.44;;;10.56;100.00
14067;BME280;7108;42.684;23.350;2023-04-26T02:25:50;94377.97;;;10.62;100.00
14067;BME280;7108;42.684;23.350;2023-04-26T02:28:16;94380.25;;;10.63;100.00
14067;BME280;7108;42.684;23.350;2023-04-26T02:30:41;94367.91;;;10.59;100.00
14067;BME280;7108;42.684;23.350;2023-04-26T02:33:07;94368.31;;;10.57;100.00
14067;BME280;7108;42.684;23.350;2023-04-26T02:35:34;94371.41;;;10.59;100.00
14067;BME280;7108;42.684;23.350;2023-04-26T02:38:00;94369.44;;;10.56;100.00
14067;BME280;7108;42.684;23.350;2023-04-26T02:40:25;94375.25;;;10.58;100.00
14067;BME280;7108;42.684;23.350;2023-04-26T02:42:51;94384.09;;;10.62;100.00
14067;BME280;7108;42.684;23.350;2023-04-26T02:45:16;94379.50;;;10.66;100.00
14067;BME280;7108;42.684;23.350;2023-04-26T02:47:42;94380.25;;;10.63;100.00
14067;BME280;7108;42.684;23.350;2023-04-26T02:50:08;94364.84;;;10.57;100.00
14067;BME280;7108;42.684;23.350;2023-04-26T02:52:34;94374.09;;;10.66;100.00
14067;BME280;7108;42.684;23.350;2023-04-26T02:55:00;94371.81;;;10.68;100.00
14067;BME280;7108;42.684;23.350;2023-04-26T02:57:26;94354.09;;;10.64;100.00
14067;BME280;7108;42.684;23.350;2023-04-26T02:59:52;94359.44;;;10.60;100.00
14067;BME280;7108;42.684;23.350;2023-04-26T03:02:17;94355.28;;;10.70;100.00
14067;BME280;7108;42.684;23.350;2023-04-26T03:04:42;94362.22;;;10.71;100.00
14067;BME280;7108;42.684;23.350;2023-04-26T03:07:08;94367.63;;;10.74;100.00
14067;BME280;7108;42.684;23.350;2023-04-26T03:09:33;94368.41;;;10.82;100.00
14067;BME280;7108;42.684;23.350;2023-04-26T03:11:59;94371.50;;;10.80;100.00
14067;BME280;7108;42.684;23.350;2023-04-26T03:14:25;94369.97;;;10.86;100.00
14067;BME280;7108;42.684;23.350;2023-04-26T03:16:51;94366.88;;;10.84;100.00
14067;BME280;7108;42.684;23.350;2023-04-26T03:19:17;94357.69;;;10.89;100.00
14067;BME280;7108;42.684;23.350;2023-04-26T03:21:43;94359.22;;;10.97;100.00
14067;BME280;7108;42.684;23.350;2023-04-26T03:24:08;94360.75;;;10.94;100.00
14067;BME280;7108;42.684;23.350;2023-04-26T03:26:33;94364.59;;;10.93;100.00
14067;BME280;7108;42.684;23.350;2023-04-26T03:28:59;94348.44;;;10.86;100.00
14067;BME280;7108;42.684;23.350;2023-04-26T03:31:25;94354.59;;;10.90;100.00
14067;BME280;7108;42.684;23.350;2023-04-26T03:33:50;94349.56;;;10.85;100.00
14067;BME280;7108;42.684;23.350;2023-04-26T03:36:16;94358.44;;;10.89;100.00
14067;BME280;7108;42.684;23.350;2023-04-26T03:38:42;94361.94;;;10.97;100.00
14067;BME280;7108;42.684;23.350;2023-04-26T03:41:07;94358.06;;;10.91;100.00
14067;BME280;7108;42.684;23.350;2023-04-26T03:43:33;94370.78;;;10.94;100.00
14067;BME280;7108;42.684;23.350;2023-04-26T03:45:59;94357.69;;;10.96;100.00
14067;BME280;7108;42.684;23.350;2023-04-26T03:48:24;94368.44;;;10.85;100.00
14067;BME280;7108;42.684;23.350;2023-04-26T03:50:50;94379.22;;;10.92;100.00
14067;BME280;7108;42.684;23.350;2023-04-26T03:53:16;94377.69;;;10.88;100.00
14067;BME280;7108;42.684;23.350;2023-04-26T03:55:41;94368.06;;;10.90;100.00
14067;BME280;7108;42.684;23.350;2023-04-26T03:58:07;94377.72;;;10.98;100.00
14067;BME280;7108;42.684;23.350;2023-04-26T04:00:39;94376.94;;;10.98;100.00
14067;BME280;7108;42.684;23.350;2023-04-26T04:03:06;94380.34;;;10.81;100.00
14067;BME280;7108;42.684;23.350;2023-04-26T04:05:32;94383.47;;;10.93;100.00
14067;BME280;7108;42.684;23.350;2023-04-26T04:07:58;94390.44;;;10.98;100.00
14067;BME280;7108;42.684;23.350;2023-04-26T04:10:23;94391.19;;;11.02;100.00
14067;BME280;7108;42.684;23.350;2023-04-26T04:12:51;94387.38;;;11.06;100.00
14067;BME280;7108;42.684;23.350;2023-04-26T04:15:18;94390.44;;;11.05;100.00
14067;BME280;7108;42.684;23.350;2023-04-26T04:17:44;94393.50;;;11.03;100.00
14067;BME280;7108;42.684;23.350;2023-04-26T04:20:10;94398.56;;;11.11;100.00
14067;BME280;7108;42.684;23.350;2023-04-26T04:22:36;94403.59;;;11.20;100.00
14067;BME280;7108;42.684;23.350;2023-04-26T04:25:07;94394.72;;;11.23;100.00
14067;BME280;7108;42.684;23.350;2023-04-26T04:27:34;94403.25;;;11.32;100.00
14067;BME280;7108;42.684;23.350;2023-04-26T04:30:02;94398.22;;;11.27;100.00
14067;BME280;7108;42.684;23.350;2023-04-26T04:32:29;94399.75;;;11.28;100.00
14067;BME280;7108;42.684;23.350;2023-04-26T04:34:57;94403.25;;;11.39;100.00
14067;BME280;7108;42.684;23.350;2023-04-26T04:37:22;94401.31;;;11.36;100.00
14067;BME280;7108;42.684;23.350;2023-04-26T04:39:50;94404.41;;;11.34;100.00
14067;BME280;7108;42.684;23.350;2023-04-26T04:42:16;94402.84;;;11.30;100.00
14067;BME280;7108;42.684;23.350;2023-04-26T04:44:41;94395.53;;;11.34;100.00
14067;BME280;7108;42.684;23.350;2023-04-26T04:47:07;94404.38;;;11.27;100.00
14067;BME280;7108;42.684;23.350;2023-04-26T04:49:32;94410.16;;;11.26;100.00
14067;BME280;7108;42.684;23.350;2023-04-26T04:51:58;94402.75;;;10.99;100.00
14067;BME280;7108;42.684;23.350;2023-04-26T04:54:23;94413.91;;;10.94;100.00
14067;BME280;7108;42.684;23.350;2023-04-26T04:56:49;94400.38;;;10.83;100.00
14067;BME280;7108;42.684;23.350;2023-04-26T04:59:15;94400.78;;;10.92;100.00
14067;BME280;7108;42.684;23.350;2023-04-26T05:01:40;94408.13;;;11.02;100.00
14067;BME280;7108;42.684;23.350;2023-04-26T05:04:06;94410.06;;;10.98;100.00
14067;BME280;7108;42.684;23.350;2023-04-26T05:06:31;94403.56;;;11.13;100.00
14067;BME280;7108;42.684;23.350;2023-04-26T05:08:57;94406.69;;;11.29;100.00
14067;BME280;7108;42.684;23.350;2023-04-26T05:11:23;94396.69;;;11.29;100.00
14067;BME280;7108;42.684;23.350;2023-04-26T05:13:49;94406.34;;;11.41;100.00
14067;BME280;7108;42.684;23.350;2023-04-26T05:16:15;94388.63;;;11.40;100.00
14067;BME280;7108;42.684;23.350;2023-04-26T05:18:40;94409.09;;;11.55;100.00
14067;BME280;7108;42.684;23.350;2023-04-26T05:21:06;94396.78;;;11.50;100.00
14067;BME280;7108;42.684;23.350;2023-04-26T05:23:31;94387.91;;;11.53;100.00
14067;BME280;7108;42.684;23.350;2023-04-26T05:26:05;94412.19;;;11.67;100.00
14067;BME280;7108;42.684;23.350;2023-04-26T05:28:31;94405.66;;;11.75;100.00
14067;BME280;7108;42.684;23.350;2023-04-26T05:30:57;94406.84;;;11.84;100.00
14067;BME280;7108;42.684;23.350;2023-04-26T05:33:23;94419.19;;;12.03;100.00
14067;BME280;7108;42.684;23.350;2023-04-26T05:35:49;94408.00;;;12.04;100.00
14067;BME280;7108;42.684;23.350;2023-04-26T05:38:14;94407.59;;;11.99;100.00
14067;BME280;7108;42.684;23.350;2023-04-26T05:40:40;94410.69;;;12.01;100.00
14067;BME280;7108;42.684;23.350;2023-04-26T05:43:06;94425.38;;;12.10;100.00
14067;BME280;7108;42.684;23.350;2023-04-26T05:45:31;94411.06;;;12.17;100.00
14067;BME280;7108;42.684;23.350;2023-04-26T05:47:57;94420.72;;;12.25;100.00
14067;BME280;7108;42.684;23.350;2023-04-26T05:50:22;94409.91;;;12.32;100.00
14067;BME280;7108;42.684;23.350;2023-04-26T05:52:48;94418.41;;;12.34;100.00
14067;BME280;7108;42.684;23.350;2023-04-26T05:55:13;94415.31;;;12.21;100.00
14067;BME280;7108;42.684;23.350;2023-04-26T05:57:39;94408.75;;;12.19;100.00
14067;BME280;7108;42.684;23.350;2023-04-26T06:00:05;94418.00;;;12.25;100.00
14067;BME280;7108;42.684;23.350;2023-04-26T06:02:30;94423.78;;;12.20;100.00
14067;BME280;7108;42.684;23.350;2023-04-26T06:04:56;94416.84;;;12.22;100.00
14067;BME280;7108;42.684;23.350;2023-04-26T06:07:21;94417.22;;;12.35;100.00
14067;BME280;7108;42.684;23.350;2023-04-26T06:09:47;94416.84;;;12.43;100.00
14067;BME280;7108;42.684;23.350;2023-04-26T06:12:12;94412.97;;;12.41;100.00
14067;BME280;7108;42.684;23.350;2023-04-26T06:14:38;94420.72;;;12.35;100.00
14067;BME280;7108;42.684;23.350;2023-04-26T06:17:03;94425.72;;;12.43;100.00
14067;BME280;7108;42.684;23.350;2023-04-26T06:19:29;94421.47;;;12.39;100.00
14067;BME280;7108;42.684;23.350;2023-04-26T06:21:54;94421.47;;;12.36;100.00
14067;BME280;7108;42.684;23.350;2023-04-26T06:24:22;94427.25;;;12.44;100.00
14067;BME280;7108;42.684;23.350;2023-04-26T06:26:50;94425.69;;;12.57;100.00
14067;BME280;7108;42.684;23.350;2023-04-26T06:29:16;94426.88;;;12.46;100.00
14067;BME280;7108;42.684;23.350;2023-04-26T06:31:41;94417.59;;;12.50;100.00
14067;BME280;7108;42.684;23.350;2023-04-26T06:34:06;94409.50;;;12.43;100.00
14067;BME280;7108;42.684;23.350;2023-04-26T06:36:32;94423.75;;;12.75;100.00
14067;BME280;7108;42.684;23.350;2023-04-26T06:38:57;94405.63;;;12.51;100.00
14067;BME280;7108;42.684;23.350;2023-04-26T06:41:23;94411.03;;;12.48;100.00
14067;BME280;7108;42.684;23.350;2023-04-26T06:43:48;94419.13;;;12.62;100.00
14067;BME280;7108;42.684;23.350;2023-04-26T06:46:14;94413.72;;;12.58;100.00
14067;BME280;7108;42.684;23.350;2023-04-26T06:48:39;94412.13;;;12.75;100.00
14067;BME280;7108;42.684;23.350;2023-04-26T06:51:05;94411.38;;;12.67;100.00
14067;BME280;7108;42.684;23.350;2023-04-26T06:53:31;94408.38;;;12.31;100.00
14067;BME280;7108;42.684;23.350;2023-04-26T06:55:56;94405.66;;;12.06;100.00
14067;BME280;7108;42.684;23.350;2023-04-26T06:58:22;94417.22;;;11.76;100.00
14067;BME280;7108;42.684;23.350;2023-04-26T07:00:48;94416.81;;;11.63;100.00
14067;BME280;7108;42.684;23.350;2023-04-26T07:03:13;94420.28;;;11.57;100.00
14067;BME280;7108;42.684;23.350;2023-04-26T07:05:38;94417.63;;;11.84;100.00
14067;BME280;7108;42.684;23.350;2023-04-26T07:08:05;94428.41;;;11.64;100.00
14067;BME280;7108;42.684;23.350;2023-04-26T07:10:30;94419.16;;;11.75;100.00
14067;BME280;7108;42.684;23.350;2023-04-26T07:12:56;94413.00;;;11.95;100.00
14067;BME280;7108;42.684;23.350;2023-04-26T07:15:21;94407.97;;;11.94;100.00
14067;BME280;7108;42.684;23.350;2023-04-26T07:17:47;94434.19;;;11.76;100.00
14067;BME280;7108;42.684;23.350;2023-04-26T07:20:12;94426.47;;;11.64;100.00
14067;BME280;7108;42.684;23.350;2023-04-26T07:22:39;94421.84;;;11.58;100.00
14067;BME280;7108;42.684;23.350;2023-04-26T07:25:05;94439.56;;;11.69;100.00
14067;BME280;7108;42.684;23.350;2023-04-26T07:27:31;94428.81;;;11.76;100.00
14067;BME280;7108;42.684;23.350;2023-04-26T07:29:56;94444.59;;;11.64;100.00
14067;BME280;7108;42.684;23.350;2023-04-26T07:32:21;94426.00;;;11.48;100.00
14067;BME280;7108;42.684;23.350;2023-04-26T07:34:47;94440.66;;;11.40;100.00
14067;BME280;7108;42.684;23.350;2023-04-26T07:37:12;94441.38;;;11.34;100.00
14067;BME280;7108;42.684;23.350;2023-04-26T07:39:38;94448.38;;;11.45;100.00
14067;BME280;7108;42.684;23.350;2023-04-26T07:42:03;94448.06;;;11.71;100.00
14067;BME280;7108;42.684;23.350;2023-04-26T07:44:29;94443.84;;;11.84;100.00
14067;BME280;7108;42.684;23.350;2023-04-26T07:46:54;94448.09;;;11.99;100.00
14067;BME280;7108;42.684;23.350;2023-04-26T07:49:20;94437.69;;;12.01;100.00
14067;BME280;7108;42.684;23.350;2023-04-26T07:51:47;94434.97;;;11.90;100.00
14067;BME280;7108;42.684;23.350;2023-04-26T07:54:15;94436.91;;;12.00;100.00
14067;BME280;7108;42.684;23.350;2023-04-26T07:56:40;94448.47;;;11.90;100.00
14067;BME280;7108;42.684;23.350;2023-04-26T07:59:06;94447.66;;;11.59;100.00
14067;BME280;7108;42.684;23.350;2023-04-26T08:01:31;94452.97;;;11.48;100.00
14067;BME280;7108;42.684;23.350;2023-04-26T08:03:57;94447.59;;;11.48;100.00
14067;BME280;7108;42.684;23.350;2023-04-26T08:06:23;94448.44;;;11.66;100.00
14067;BME280;7108;42.684;23.350;2023-04-26T08:08:49;94431.09;;;11.71;100.00
14067;BME280;7108;42.684;23.350;2023-04-26T08:11:15;94452.69;;;11.77;100.00
14067;BME280;7108;42.684;23.350;2023-04-26T08:13:40;94450.00;;;11.77;100.00
14067;BME280;7108;42.684;23.350;2023-04-26T08:16:08;94443.06;;;11.83;100.00
14067;BME280;7108;42.684;23.350;2023-04-26T08:18:34;94446.94;;;12.00;100.00
14067;BME280;7108;42.684;23.350;2023-04-26T08:21:00;94452.34;;;12.00;100.00
14067;BME280;7108;42.684;23.350;2023-04-26T08:23:25;94435.38;;;12.17;100.00
14067;BME280;7108;42.684;23.350;2023-04-26T08:25:52;94441.94;;;12.16;100.00
14067;BME280;7108;42.684;23.350;2023-04-26T08:28:17;94431.91;;;12.27;100.00
14067;BME280;7108;42.684;23.350;2023-04-26T08:30:43;94436.91;;;12.42;100.00
14067;BME280;7108;42.684;23.350;2023-04-26T08:33:08;94433.44;;;12.38;100.00
14067;BME280;7108;42.684;23.350;2023-04-26T08:35:34;94433.06;;;12.36;100.00
14067;BME280;7108;42.684;23.350;2023-04-26T08:37:59;94436.50;;;12.54;100.00
14067;BME280;7108;42.684;23.350;2023-04-26T08:40:25;94433.41;;;12.69;100.00
14067;BME280;7108;42.684;23.350;2023-04-26T08:42:51;94442.28;;;12.77;100.00
14067;BME280;7108;42.684;23.350;2023-04-26T08:45:19;94441.88;;;12.78;100.00
14067;BME280;7108;42.684;23.350;2023-04-26T08:48:05;94438.03;;;12.69;100.00
14067;BME280;7108;42.684;23.350;2023-04-26T08:50:33;94433.41;;;12.69;100.00
14067;BME280;7108;42.684;23.350;2023-04-26T08:53:00;94439.56;;;12.63;100.00
14067;BME280;7108;42.684;23.350;2023-04-26T08:55:26;94439.59;;;12.42;100.00
14067;BME280;7108;42.684;23.350;2023-04-26T08:57:52;94423.41;;;12.39;100.00
14067;BME280;7108;42.684;23.350;2023-04-26T09:00:18;94438.81;;;12.62;100.00
14067;BME280;7108;42.684;23.350;2023-04-26T09:02:49;94439.97;;;12.65;100.00
14067;BME280;7108;42.684;23.350;2023-04-26T09:05:18;94440.38;;;12.63;100.00
14067;BME280;7108;42.684;23.350;2023-04-26T09:07:48;94447.31;;;12.61;100.00
14067;BME280;7108;42.684;23.350;2023-04-26T09:10:17;94438.06;;;12.58;100.00
14067;BME280;7108;42.684;23.350;2023-04-26T09:12:45;94450.38;;;12.80;100.00
14067;BME280;7108;42.684;23.350;2023-04-26T09:15:13;94445.38;;;12.68;100.00
14067;BME280;7108;42.684;23.350;2023-04-26T09:17:39;94456.16;;;12.89;100.00
14067;BME280;7108;42.684;23.350;2023-04-26T09:20:32;94451.53;;;12.76;100.00
14067;BME280;7108;42.684;23.350;2023-04-26T09:23:05;94441.06;;;12.85;100.00
14067;BME280;7108;42.684;23.350;2023-04-26T09:25:31;94431.06;;;12.71;100.00
14067;BME280;7108;42.684;23.350;2023-04-26T09:27:57;94438.41;;;12.78;100.00
14067;BME280;7108;42.684;23.350;2023-04-26T09:30:24;94454.63;;;12.92;100.00
14067;BME280;7108;42.684;23.350;2023-04-26T09:35:30;94446.84;;;13.04;100.00
14067;BME280;7108;42.684;23.350;2023-04-26T09:40:25;94444.56;;;12.96;100.00
14067;BME280;7108;42.684;23.350;2023-04-26T09:43:04;94439.53;;;13.01;100.00
14067;BME280;7108;42.684;23.350;2023-04-26T09:45:32;94426.75;;;13.09;100.00
14067;BME280;7108;42.684;23.350;2023-04-26T09:48:13;94442.19;;;13.08;100.00
14067;BME280;7108;42.684;23.350;2023-04-26T09:50:40;94446.84;;;13.01;100.00
14067;BME280;7108;42.684;23.350;2023-04-26T09:53:06;94442.25;;;12.80;100.00
14067;BME280;7108;42.684;23.350;2023-04-26T09:55:32;94432.97;;;12.95;100.00
14067;BME280;7108;42.684;23.350;2023-04-26T09:58:00;94442.97;;;13.09;100.00
14067;BME280;7108;42.684;23.350;2023-04-26T10:00:32;94425.19;;;13.11;100.00
14067;BME280;7108;42.684;23.350;2023-04-26T10:02:57;94430.16;;;13.26;100.00
14067;BME280;7108;42.684;23.350;2023-04-26T10:05:23;94424.72;;;13.37;100.00
14067;BME280;7108;42.684;23.350;2023-04-26T10:07:49;94433.50;;;13.51;100.00
14067;BME280;7108;42.684;23.350;2023-04-26T10:10:15;94433.91;;;13.46;100.00
14067;BME280;7108;42.684;23.350;2023-04-26T10:12:41;94432.25;;;13.70;100.00
14067;BME280;7108;42.684;23.350;2023-04-26T10:15:10;94426.09;;;13.66;100.00
14067;BME280;7108;42.684;23.350;2023-04-26T10:17:37;94438.03;;;13.72;100.00
14067;BME280;7108;42.684;23.350;2023-04-26T10:20:05;94433.81;;;13.67;100.00
14067;BME280;7108;42.684;23.350;2023-04-26T10:22:45;94428.38;;;13.67;100.00
14067;BME280;7108;42.684;23.350;2023-04-26T10:25:13;94430.78;;;13.58;100.00
14067;BME280;7108;42.684;23.350;2023-04-26T10:27:48;94424.69;;;13.40;95.87
14067;BME280;7108;42.684;23.350;2023-04-26T10:30:15;94418.88;;;13.45;97.43
14067;BME280;7108;42.684;23.350;2023-04-26T10:35:26;94424.13;;;13.70;100.00
14067;BME280;7108;42.684;23.350;2023-04-26T10:40:34;94420.75;;;13.52;100.00
14067;BME280;7108;42.684;23.350;2023-04-26T10:45:36;94422.22;;;13.67;92.43
14067;BME280;7108;42.684;23.350;2023-04-26T10:58:49;94404.91;;;13.50;88.56
14067;BME280;7108;42.684;23.350;2023-04-26T11:01:31;94416.97;;;13.35;85.88
14067;BME280;7108;42.684;23.350;2023-04-26T11:06:23;94410.44;;;13.29;87.49
14067;BME280;7108;42.684;23.350;2023-04-26T11:08:49;94416.19;;;13.38;87.79
14067;BME280;7108;42.684;23.350;2023-04-26T11:11:16;94418.09;;;13.45;85.08
14067;BME280;7108;42.684;23.350;2023-04-26T11:13:44;94418.44;;;13.50;87.14
14067;BME280;7108;42.684;23.350;2023-04-26T11:16:14;94412.97;;;13.57;85.71
14067;BME280;7108;42.684;23.350;2023-04-26T11:18:42;94411.47;;;13.53;86.46
14067;BME280;7108;42.684;23.350;2023-04-26T11:21:09;94412.53;;;13.69;87.42
14067;BME280;7108;42.684;23.350;2023-04-26T11:23:36;94403.97;;;13.77;88.46
14067;BME280;7108;42.684;23.350;2023-04-26T11:26:03;94411.16;;;14.01;85.09
14067;BME280;7108;42.684;23.350;2023-04-26T11:28:33;94406.56;;;13.95;81.47
14067;BME280;7108;42.684;23.350;2023-04-26T11:30:59;94414.75;;;13.84;81.74
14067;BME280;7108;42.684;23.350;2023-04-26T11:33:25;94418.63;;;13.83;81.56
14067;BME280;7108;42.684;23.350;2023-04-26T11:35:52;94407.38;;;13.92;85.87
14067;BME280;7108;42.684;23.350;2023-04-26T11:38:22;94409.25;;;13.95;81.99
14067;BME280;7108;42.684;23.350;2023-04-26T11:40:59;94411.56;;;13.96;81.71
14067;BME280;7108;42.684;23.350;2023-04-26T11:43:35;94427.41;;;14.01;81.69
14067;BME280;7108;42.684;23.350;2023-04-26T11:46:01;94407.69;;;13.97;79.17
14067;BME280;7108;42.684;23.350;2023-04-26T11:48:31;94405.97;;;14.24;81.22
14067;BME280;7108;42.684;23.350;2023-04-26T11:50:58;94420.22;;;14.35;78.35
14067;BME280;7108;42.684;23.350;2023-04-26T11:53:33;94404.53;;;14.53;76.44
14067;BME280;7108;42.684;23.350;2023-04-26T11:55:59;94406.34;;;14.66;75.47
14067;BME280;7108;42.684;23.350;2023-04-26T11:58:25;94396.13;;;14.81;77.10
14067;BME280;7108;42.684;23.350;2023-04-26T12:01:00;94398.84;;;14.81;73.01
14067;BME280;7108;42.684;23.350;2023-04-26T12:03:30;94394.31;;;14.71;74.97
14067;BME280;7108;42.684;23.350;2023-04-26T12:05:56;94407.38;;;14.83;76.73
14067;BME280;7108;42.684;23.350;2023-04-26T12:08:26;94409.91;;;14.60;77.48
14067;BME280;7108;42.684;23.350;2023-04-26T12:10:52;94406.47;;;14.56;81.39
14067;BME280;7108;42.684;23.350;2023-04-26T12:13:18;94406.91;;;14.51;83.00
14067;BME280;7108;42.684;23.350;2023-04-26T12:15:45;94399.63;;;14.41;81.22
14067;BME280;7108;42.684;23.350;2023-04-26T12:18:11;94406.44;;;14.59;80.08
14067;BME280;7108;42.684;23.350;2023-04-26T12:20:40;94401.63;;;14.74;78.45
14067;BME280;7108;42.684;23.350;2023-04-26T12:23:08;94397.94;;;14.57;79.68
14067;BME280;7108;42.684;23.350;2023-04-26T12:25:36;94395.94;;;14.61;75.67
14067;BME280;7108;42.684;23.350;2023-04-26T12:28:08;94406.00;;;14.64;77.28
14067;BME280;7108;42.684;23.350;2023-04-26T12:30:37;94402.44;;;14.71;76.81
14067;BME280;7108;42.684;23.350;2023-04-26T12:33:03;94396.13;;;14.44;72.40
14067;BME280;7108;42.684;23.350;2023-04-26T12:35:29;94389.72;;;14.24;75.96
14067;BME280;7108;42.684;23.350;2023-04-26T12:37:55;94393.16;;;14.28;78.03
14067;BME280;7108;42.684;23.350;2023-04-26T12:40:22;94397.44;;;14.26;76.07
14067;BME280;7108;42.684;23.350;2023-04-26T12:42:48;94394.06;;;14.11;77.95
14067;BME280;7108;42.684;23.350;2023-04-26T12:45:15;94384.81;;;14.09;78.58
14067;BME280;7108;42.684;23.350;2023-04-26T12:47:42;94401.31;;;14.25;87.31
14067;BME280;7108;42.684;23.350;2023-04-26T12:50:08;94389.00;;;14.17;80.92
14067;BME280;7108;42.684;23.350;2023-04-26T12:52:36;94394.56;;;13.96;82.15
14067;BME280;7108;42.684;23.350;2023-04-26T12:55:01;94399.66;;;13.87;84.06
14067;BME280;7108;42.684;23.350;2023-04-26T12:57:29;94391.94;;;13.82;84.32
14067;BME280;7108;42.684;23.350;2023-04-26T12:59:54;94405.56;;;13.72;80.87
14067;BME280;7108;42.684;23.350;2023-04-26T13:02:21;94404.44;;;13.66;82.59
14067;BME280;7108;42.684;23.350;2023-04-26T13:04:47;94396.72;;;13.61;82.22
14067;BME280;7108;42.684;23.350;2023-04-26T13:07:12;94388.31;;;13.45;83.00
14067;BME280;7108;42.684;23.350;2023-04-26T13:09:38;94406.81;;;13.53;81.18
14067;BME280;7108;42.684;23.350;2023-04-26T13:12:03;94402.53;;;13.59;85.57
14067;BME280;7108;42.684;23.350;2023-04-26T13:14:29;94393.75;;;13.41;88.74
14067;BME280;7108;42.684;23.350;2023-04-26T13:16:58;94420.38;;;13.46;90.38